Terminal Aerodrome Forecast
Issued by NWS Missoula, MT

Home | Current Version | Previous Version | Text Only | Print | Product List | Glossary On
Versions: 1 2 3 4 5 6 7 8 9 10 11 12 13 14 15 16 17 18 19 20 21 22 23 24 25 26 27 28 29 30
000
FTUS45 KMSO 290523
TAFGPI
TAF
KGPI 290523Z 2906/3006 00000KT 1SM MIFG SCT001
      TEMPO 2906/2909 1/2SM FZFG BKN003
     FM290900 00000KT 1/2SM FZFG BKN002
     FM291700 00000KT 6SM HZ SCT040=

USA.gov is the U.S. government's official web portal to all federal, state and local government web resources and services.